sensor_id;sensor_type;location;lat;lon;timestamp;temperature;humidity
17774;DHT22;9011;33.236;-97.118;2022-10-10T00:01:02;25.30;99.90
17774;DHT22;9011;33.236;-97.118;2022-10-10T00:03:30;25.10;99.90
17774;DHT22;9011;33.236;-97.118;2022-10-10T00:05:58;25.10;99.90
17774;DHT22;9011;33.236;-97.118;2022-10-10T00:08:28;25.10;99.90
17774;DHT22;9011;33.236;-97.118;2022-10-10T00:10:56;25.00;99.90
17774;DHT22;9011;33.236;-97.118;2022-10-10T00:13:25;24.90;99.90
17774;DHT22;9011;33.236;-97.118;2022-10-10T00:15:53;24.80;99.90
17774;DHT22;9011;33.236;-97.118;2022-10-10T00:18:21;24.70;99.90
17774;DHT22;9011;33.236;-97.118;2022-10-10T00:20:50;24.70;99.90
17774;DHT22;9011;33.236;-97.118;2022-10-10T00:23:18;24.50;99.90
17774;DHT22;9011;33.236;-97.118;2022-10-10T00:25:48;24.40;99.90
17774;DHT22;9011;33.236;-97.118;2022-10-10T00:28:17;24.30;99.90
17774;DHT22;9011;33.236;-97.118;2022-10-10T00:30:46;24.20;99.90
17774;DHT22;9011;33.236;-97.118;2022-10-10T00:33:15;24.10;99.90
17774;DHT22;9011;33.236;-97.118;2022-10-10T00:35:43;24.00;99.90
17774;DHT22;9011;33.236;-97.118;2022-10-10T00:38:11;23.90;99.90
17774;DHT22;9011;33.236;-97.118;2022-10-10T00:40:45;23.80;99.90
17774;DHT22;9011;33.236;-97.118;2022-10-10T00:43:15;23.70;99.90
17774;DHT22;9011;33.236;-97.118;2022-10-10T00:45:45;23.60;99.90
17774;DHT22;9011;33.236;-97.118;2022-10-10T00:48:15;23.50;99.90
17774;DHT22;9011;33.236;-97.118;2022-10-10T00:50:49;23.40;99.90
17774;DHT22;9011;33.236;-97.118;2022-10-10T00:53:21;23.30;99.90
17774;DHT22;9011;33.236;-97.118;2022-10-10T00:55:54;23.20;99.90
17774;DHT22;9011;33.236;-97.118;2022-10-10T00:58:24;23.10;99.90
17774;DHT22;9011;33.236;-97.118;2022-10-10T01:00:53;22.90;99.90
17774;DHT22;9011;33.236;-97.118;2022-10-10T01:03:22;22.80;99.90
17774;DHT22;9011;33.236;-97.118;2022-10-10T01:05:50;22.70;99.90
17774;DHT22;9011;33.236;-97.118;2022-10-10T01:08:20;22.60;99.90
17774;DHT22;9011;33.236;-97.118;2022-10-10T01:11:07;22.60;99.90
17774;DHT22;9011;33.236;-97.118;2022-10-10T01:13:45;22.60;99.90
17774;DHT22;9011;33.236;-97.118;2022-10-10T01:16:22;22.40;99.90
17774;DHT22;9011;33.236;-97.118;2022-10-10T01:18:58;22.30;99.90
17774;DHT22;9011;33.236;-97.118;2022-10-10T01:21:38;22.30;99.90
17774;DHT22;9011;33.236;-97.118;2022-10-10T01:24:44;22.20;99.90
17774;DHT22;9011;33.236;-97.118;2022-10-10T01:27:32;22.20;99.90
17774;DHT22;9011;33.236;-97.118;2022-10-10T01:30:05;22.10;99.90
17774;DHT22;9011;33.236;-97.118;2022-10-10T01:32:38;22.10;99.90
17774;DHT22;9011;33.236;-97.118;2022-10-10T01:35:23;22.10;99.90
17774;DHT22;9011;33.236;-97.118;2022-10-10T01:37:56;22.00;99.90
17774;DHT22;9011;33.236;-97.118;2022-10-10T01:40:30;22.00;99.90
17774;DHT22;9011;33.236;-97.118;2022-10-10T01:43:02;21.90;99.90
17774;DHT22;9011;33.236;-97.118;2022-10-10T01:45:34;21.90;99.90
17774;DHT22;9011;33.236;-97.118;2022-10-10T01:48:04;21.80;99.90
17774;DHT22;9011;33.236;-97.118;2022-10-10T01:50:42;21.80;99.90
17774;DHT22;9011;33.236;-97.118;2022-10-10T01:53:17;21.70;99.90
17774;DHT22;9011;33.236;-97.118;2022-10-10T01:55:52;21.70;99.90
17774;DHT22;9011;33.236;-97.118;2022-10-10T01:58:39;21.60;99.90
17774;DHT22;9011;33.236;-97.118;2022-10-10T02:01:16;21.60;99.90
17774;DHT22;9011;33.236;-97.118;2022-10-10T02:03:53;21.60;99.90
17774;DHT22;9011;33.236;-97.118;2022-10-10T02:06:27;21.40;99.90
17774;DHT22;9011;33.236;-97.118;2022-10-10T02:09:01;21.40;99.90
17774;DHT22;9011;33.236;-97.118;2022-10-10T02:11:33;21.50;99.90
17774;DHT22;9011;33.236;-97.118;2022-10-10T02:14:07;21.40;99.90
17774;DHT22;9011;33.236;-97.118;2022-10-10T02:16:41;21.30;99.90
17774;DHT22;9011;33.236;-97.118;2022-10-10T02:19:15;21.10;99.90
17774;DHT22;9011;33.236;-97.118;2022-10-10T02:21:45;21.10;99.90
17774;DHT22;9011;33.236;-97.118;2022-10-10T02:24:15;21.20;99.90
17774;DHT22;9011;33.236;-97.118;2022-10-10T02:26:50;21.20;99.90
17774;DHT22;9011;33.236;-97.118;2022-10-10T02:29:23;21.20;99.90
17774;DHT22;9011;33.236;-97.118;2022-10-10T02:32:02;21.20;99.90
17774;DHT22;9011;33.236;-97.118;2022-10-10T02:34:33;21.20;99.90
17774;DHT22;9011;33.236;-97.118;2022-10-10T02:37:05;21.20;99.90
17774;DHT22;9011;33.236;-97.118;2022-10-10T02:39:39;21.10;99.90
17774;DHT22;9011;33.236;-97.118;2022-10-10T02:42:09;21.10;99.90
17774;DHT22;9011;33.236;-97.118;2022-10-10T02:44:40;21.10;99.90
17774;DHT22;9011;33.236;-97.118;2022-10-10T02:47:11;20.90;99.90
17774;DHT22;9011;33.236;-97.118;2022-10-10T02:49:39;20.90;99.90
17774;DHT22;9011;33.236;-97.118;2022-10-10T02:52:08;20.90;99.90
17774;DHT22;9011;33.236;-97.118;2022-10-10T02:54:37;20.90;99.90
17774;DHT22;9011;33.236;-97.118;2022-10-10T02:57:06;20.90;99.90
17774;DHT22;9011;33.236;-97.118;2022-10-10T02:59:34;20.90;99.90
17774;DHT22;9011;33.236;-97.118;2022-10-10T03:02:03;20.90;99.90
17774;DHT22;9011;33.236;-97.118;2022-10-10T03:04:33;20.80;99.90
17774;DHT22;9011;33.236;-97.118;2022-10-10T03:07:02;20.80;99.90
17774;DHT22;9011;33.236;-97.118;2022-10-10T03:09:31;20.80;99.90
17774;DHT22;9011;33.236;-97.118;2022-10-10T03:12:00;20.80;99.90
17774;DHT22;9011;33.236;-97.118;2022-10-10T03:14:28;20.80;99.90
17774;DHT22;9011;33.236;-97.118;2022-10-10T03:16:57;20.70;99.90
17774;DHT22;9011;33.236;-97.118;2022-10-10T03:19:25;20.70;99.90
17774;DHT22;9011;33.236;-97.118;2022-10-10T03:21:55;20.70;99.90
17774;DHT22;9011;33.236;-97.118;2022-10-10T03:24:24;20.60;99.90
17774;DHT22;9011;33.236;-97.118;2022-10-10T03:26:52;20.60;99.90
17774;DHT22;9011;33.236;-97.118;2022-10-10T03:29:20;20.60;99.90
17774;DHT22;9011;33.236;-97.118;2022-10-10T03:31:48;20.50;99.90
17774;DHT22;9011;33.236;-97.118;2022-10-10T03:34:17;20.50;99.90
17774;DHT22;9011;33.236;-97.118;2022-10-10T03:36:45;20.50;99.90
17774;DHT22;9011;33.236;-97.118;2022-10-10T03:39:15;20.40;99.90
17774;DHT22;9011;33.236;-97.118;2022-10-10T03:41:43;20.30;99.90
17774;DHT22;9011;33.236;-97.118;2022-10-10T03:44:11;20.30;99.90
17774;DHT22;9011;33.236;-97.118;2022-10-10T03:46:40;20.30;99.90
17774;DHT22;9011;33.236;-97.118;2022-10-10T03:49:08;20.30;99.90
17774;DHT22;9011;33.236;-97.118;2022-10-10T03:51:36;20.30;99.90
17774;DHT22;9011;33.236;-97.118;2022-10-10T03:54:04;20.20;99.90
17774;DHT22;9011;33.236;-97.118;2022-10-10T03:56:34;20.10;99.90
17774;DHT22;9011;33.236;-97.118;2022-10-10T03:59:02;20.00;99.90
17774;DHT22;9011;33.236;-97.118;2022-10-10T04:01:32;20.00;99.90
17774;DHT22;9011;33.236;-97.118;2022-10-10T04:04:00;20.00;99.90
17774;DHT22;9011;33.236;-97.118;2022-10-10T04:06:29;20.00;99.90
17774;DHT22;9011;33.236;-97.118;2022-10-10T04:08:57;20.00;99.90
17774;DHT22;9011;33.236;-97.118;2022-10-10T04:11:25;20.00;99.90
17774;DHT22;9011;33.236;-97.118;2022-10-10T04:13:55;20.00;99.90
17774;DHT22;9011;33.236;-97.118;2022-10-10T04:16:23;19.90;99.90
17774;DHT22;9011;33.236;-97.118;2022-10-10T04:18:52;20.00;99.90
17774;DHT22;9011;33.236;-97.118;2022-10-10T04:21:20;20.00;99.90
17774;DHT22;9011;33.236;-97.118;2022-10-10T04:23:48;20.00;99.90
17774;DHT22;9011;33.236;-97.118;2022-10-10T04:26:16;20.00;99.90
17774;DHT22;9011;33.236;-97.118;2022-10-10T04:28:45;20.00;99.90
17774;DHT22;9011;33.236;-97.118;2022-10-10T04:31:15;20.00;99.90
17774;DHT22;9011;33.236;-97.118;2022-10-10T04:33:43;20.00;99.90
17774;DHT22;9011;33.236;-97.118;2022-10-10T04:36:11;20.00;99.90
17774;DHT22;9011;33.236;-97.118;2022-10-10T04:38:40;20.10;99.90
17774;DHT22;9011;33.236;-97.118;2022-10-10T04:41:08;20.10;99.90
17774;DHT22;9011;33.236;-97.118;2022-10-10T04:43:37;20.10;99.90
17774;DHT22;9011;33.236;-97.118;2022-10-10T04:46:05;20.10;99.90
17774;DHT22;9011;33.236;-97.118;2022-10-10T04:48:36;20.10;99.90
17774;DHT22;9011;33.236;-97.118;2022-10-10T04:51:04;20.10;99.90
17774;DHT22;9011;33.236;-97.118;2022-10-10T04:53:33;20.10;99.90
17774;DHT22;9011;33.236;-97.118;2022-10-10T04:56:01;20.10;99.90
17774;DHT22;9011;33.236;-97.118;2022-10-10T04:58:30;20.10;99.90
17774;DHT22;9011;33.236;-97.118;2022-10-10T05:00:58;20.10;99.90
17774;DHT22;9011;33.236;-97.118;2022-10-10T05:03:26;20.10;99.90
17774;DHT22;9011;33.236;-97.118;2022-10-10T05:05:56;20.10;99.90
17774;DHT22;9011;33.236;-97.118;2022-10-10T05:08:25;20.10;99.90
17774;DHT22;9011;33.236;-97.118;2022-10-10T05:10:53;20.10;99.90
17774;DHT22;9011;33.236;-97.118;2022-10-10T05:13:21;20.10;99.90
17774;DHT22;9011;33.236;-97.118;2022-10-10T05:15:50;19.90;99.90
17774;DHT22;9011;33.236;-97.118;2022-10-10T05:18:19;19.90;99.90
17774;DHT22;9011;33.236;-97.118;2022-10-10T05:20:48;19.80;99.90
17774;DHT22;9011;33.236;-97.118;2022-10-10T05:23:18;19.70;99.90
17774;DHT22;9011;33.236;-97.118;2022-10-10T05:25:48;19.80;99.90
17774;DHT22;9011;33.236;-97.118;2022-10-10T05:28:17;19.80;99.90
17774;DHT22;9011;33.236;-97.118;2022-10-10T05:30:45;19.80;99.90
17774;DHT22;9011;33.236;-97.118;2022-10-10T05:33:13;19.70;99.90
17774;DHT22;9011;33.236;-97.118;2022-10-10T05:35:42;19.70;99.90
17774;DHT22;9011;33.236;-97.118;2022-10-10T05:38:10;19.70;99.90
17774;DHT22;9011;33.236;-97.118;2022-10-10T05:40:40;19.70;99.90
17774;DHT22;9011;33.236;-97.118;2022-10-10T05:43:09;19.70;99.90
17774;DHT22;9011;33.236;-97.118;2022-10-10T05:45:38;19.70;99.90
17774;DHT22;9011;33.236;-97.118;2022-10-10T05:48:06;19.70;99.90
17774;DHT22;9011;33.236;-97.118;2022-10-10T05:50:37;19.60;99.90
17774;DHT22;9011;33.236;-97.118;2022-10-10T05:53:06;19.50;99.90
17774;DHT22;9011;33.236;-97.118;2022-10-10T05:55:34;19.50;99.90
17774;DHT22;9011;33.236;-97.118;2022-10-10T05:58:05;19.50;99.90
17774;DHT22;9011;33.236;-97.118;2022-10-10T06:00:34;19.40;99.90
17774;DHT22;9011;33.236;-97.118;2022-10-10T06:03:03;19.40;99.90
17774;DHT22;9011;33.236;-97.118;2022-10-10T06:05:31;19.40;99.90
17774;DHT22;9011;33.236;-97.118;2022-10-10T06:07:59;19.40;99.90
17774;DHT22;9011;33.236;-97.118;2022-10-10T06:10:28;19.40;99.90
17774;DHT22;9011;33.236;-97.118;2022-10-10T06:12:56;19.40;99.90
17774;DHT22;9011;33.236;-97.118;2022-10-10T06:15:26;19.40;99.90
17774;DHT22;9011;33.236;-97.118;2022-10-10T06:17:55;19.30;99.90
17774;DHT22;9011;33.236;-97.118;2022-10-10T06:20:23;19.30;99.90
17774;DHT22;9011;33.236;-97.118;2022-10-10T06:22:51;19.30;99.90
17774;DHT22;9011;33.236;-97.118;2022-10-10T06:25:19;19.30;99.90
17774;DHT22;9011;33.236;-97.118;2022-10-10T06:27:48;19.30;99.90
17774;DHT22;9011;33.236;-97.118;2022-10-10T06:30:16;19.30;99.90
17774;DHT22;9011;33.236;-97.118;2022-10-10T06:32:46;19.30;99.90
17774;DHT22;9011;33.236;-97.118;2022-10-10T06:35:14;19.20;99.90
17774;DHT22;9011;33.236;-97.118;2022-10-10T06:37:43;19.20;99.90
17774;DHT22;9011;33.236;-97.118;2022-10-10T06:40:11;19.20;99.90
17774;DHT22;9011;33.236;-97.118;2022-10-10T06:42:39;19.20;99.90
17774;DHT22;9011;33.236;-97.118;2022-10-10T06:45:08;19.20;99.90
17774;DHT22;9011;33.236;-97.118;2022-10-10T06:47:37;19.20;99.90
17774;DHT22;9011;33.236;-97.118;2022-10-10T06:50:07;19.20;99.90
17774;DHT22;9011;33.236;-97.118;2022-10-10T06:52:36;19.20;99.90
17774;DHT22;9011;33.236;-97.118;2022-10-10T06:55:05;19.20;99.90
17774;DHT22;9011;33.236;-97.118;2022-10-10T06:57:33;19.20;99.90
17774;DHT22;9011;33.236;-97.118;2022-10-10T07:00:05;19.20;99.90
17774;DHT22;9011;33.236;-97.118;2022-10-10T07:02:33;19.20;99.90
17774;DHT22;9011;33.236;-97.118;2022-10-10T07:05:09;19.30;99.90
17774;DHT22;9011;33.236;-97.118;2022-10-10T07:07:37;19.30;99.90
17774;DHT22;9011;33.236;-97.118;2022-10-10T07:10:06;19.30;99.90
17774;DHT22;9011;33.236;-97.118;2022-10-10T07:12:35;19.20;99.90
17774;DHT22;9011;33.236;-97.118;2022-10-10T07:15:05;19.20;99.90
17774;DHT22;9011;33.236;-97.118;2022-10-10T07:17:33;19.20;99.90
17774;DHT22;9011;33.236;-97.118;2022-10-10T07:20:02;19.30;99.90
17774;DHT22;9011;33.236;-97.118;2022-10-10T07:22:32;19.30;99.90
17774;DHT22;9011;33.236;-97.118;2022-10-10T07:25:00;19.20;99.90
17774;DHT22;9011;33.236;-97.118;2022-10-10T07:27:28;19.20;99.90
17774;DHT22;9011;33.236;-97.118;2022-10-10T07:29:57;19.10;99.90
17774;DHT22;9011;33.236;-97.118;2022-10-10T07:32:25;19.10;99.90
17774;DHT22;9011;33.236;-97.118;2022-10-10T07:34:54;19.10;99.90
17774;DHT22;9011;33.236;-97.118;2022-10-10T07:37:23;19.10;99.90
17774;DHT22;9011;33.236;-97.118;2022-10-10T07:39:53;19.10;99.90
17774;DHT22;9011;33.236;-97.118;2022-10-10T07:42:22;19.00;99.90
17774;DHT22;9011;33.236;-97.118;2022-10-10T07:44:50;19.00;99.90
17774;DHT22;9011;33.236;-97.118;2022-10-10T07:47:18;19.00;99.90
17774;DHT22;9011;33.236;-97.118;2022-10-10T07:49:47;19.10;99.90
17774;DHT22;9011;33.236;-97.118;2022-10-10T07:52:15;19.10;99.90
17774;DHT22;9011;33.236;-97.118;2022-10-10T07:54:44;19.10;99.90
17774;DHT22;9011;33.236;-97.118;2022-10-10T07:57:14;19.00;99.90
17774;DHT22;9011;33.236;-97.118;2022-10-10T07:59:42;19.00;99.90
17774;DHT22;9011;33.236;-97.118;2022-10-10T08:02:11;19.00;99.90
17774;DHT22;9011;33.236;-97.118;2022-10-10T08:04:39;19.00;99.90
17774;DHT22;9011;33.236;-97.118;2022-10-10T08:07:07;18.90;99.90
17774;DHT22;9011;33.236;-97.118;2022-10-10T08:09:36;18.90;99.90
17774;DHT22;9011;33.236;-97.118;2022-10-10T08:12:04;18.90;99.90
17774;DHT22;9011;33.236;-97.118;2022-10-10T08:14:34;18.90;99.90
17774;DHT22;9011;33.236;-97.118;2022-10-10T08:17:02;18.90;99.90
17774;DHT22;9011;33.236;-97.118;2022-10-10T08:19:30;18.80;99.90
17774;DHT22;9011;33.236;-97.118;2022-10-10T08:21:59;18.90;99.90
17774;DHT22;9011;33.236;-97.118;2022-10-10T08:24:27;18.80;99.90
17774;DHT22;9011;33.236;-97.118;2022-10-10T08:26:56;18.80;99.90
17774;DHT22;9011;33.236;-97.118;2022-10-10T08:29:24;18.80;99.90
17774;DHT22;9011;33.236;-97.118;2022-10-10T08:31:54;18.70;99.90
17774;DHT22;9011;33.236;-97.118;2022-10-10T08:34:23;18.70;99.90
17774;DHT22;9011;33.236;-97.118;2022-10-10T08:36:51;18.70;99.90
17774;DHT22;9011;33.236;-97.118;2022-10-10T08:39:19;18.70;99.90
17774;DHT22;9011;33.236;-97.118;2022-10-10T08:41:50;18.70;99.90
17774;DHT22;9011;33.236;-97.118;2022-10-10T08:44:24;18.70;99.90
17774;DHT22;9011;33.236;-97.118;2022-10-10T08:46:56;18.70;99.90
17774;DHT22;9011;33.236;-97.118;2022-10-10T08:49:29;18.60;99.90
17774;DHT22;9011;33.236;-97.118;2022-10-10T08:52:04;18.50;99.90
17774;DHT22;9011;33.236;-97.118;2022-10-10T08:54:36;18.60;99.90
17774;DHT22;9011;33.236;-97.118;2022-10-10T08:57:12;18.60;99.90
17774;DHT22;9011;33.236;-97.118;2022-10-10T08:59:48;18.60;99.90
17774;DHT22;9011;33.236;-97.118;2022-10-10T09:02:28;18.60;99.90
17774;DHT22;9011;33.236;-97.118;2022-10-10T09:04:59;18.60;99.90
17774;DHT22;9011;33.236;-97.118;2022-10-10T09:07:37;18.60;99.90
17774;DHT22;9011;33.236;-97.118;2022-10-10T09:10:17;18.60;99.90
17774;DHT22;9011;33.236;-97.118;2022-10-10T09:12:59;18.60;99.90
17774;DHT22;9011;33.236;-97.118;2022-10-10T09:15:36;18.60;99.90
17774;DHT22;9011;33.236;-97.118;2022-10-10T09:18:17;18.50;99.90
17774;DHT22;9011;33.236;-97.118;2022-10-10T09:20:53;18.50;99.90
17774;DHT22;9011;33.236;-97.118;2022-10-10T09:23:27;18.50;99.90
17774;DHT22;9011;33.236;-97.118;2022-10-10T09:26:00;18.40;99.90
17774;DHT22;9011;33.236;-97.118;2022-10-10T09:28:36;18.20;99.90
17774;DHT22;9011;33.236;-97.118;2022-10-10T09:31:12;18.10;99.90
17774;DHT22;9011;33.236;-97.118;2022-10-10T09:33:47;18.20;99.90
17774;DHT22;9011;33.236;-97.118;2022-10-10T09:36:18;18.20;99.90
17774;DHT22;9011;33.236;-97.118;2022-10-10T09:38:50;18.20;99.90
17774;DHT22;9011;33.236;-97.118;2022-10-10T09:41:22;18.00;99.90
17774;DHT22;9011;33.236;-97.118;2022-10-10T09:43:55;18.00;99.90
17774;DHT22;9011;33.236;-97.118;2022-10-10T09:46:24;18.10;99.90
17774;DHT22;9011;33.236;-97.118;2022-10-10T09:48:54;18.00;99.90
17774;DHT22;9011;33.236;-97.118;2022-10-10T09:51:22;18.00;99.90
17774;DHT22;9011;33.236;-97.118;2022-10-10T09:53:51;18.00;99.90
17774;DHT22;9011;33.236;-97.118;2022-10-10T09:56:21;18.00;99.90
17774;DHT22;9011;33.236;-97.118;2022-10-10T09:58:51;17.90;99.90
17774;DHT22;9011;33.236;-97.118;2022-10-10T10:01:20;17.90;99.90
17774;DHT22;9011;33.236;-97.118;2022-10-10T10:04:12;17.90;99.90
17774;DHT22;9011;33.236;-97.118;2022-10-10T10:06:43;17.90;99.90
17774;DHT22;9011;33.236;-97.118;2022-10-10T10:09:15;17.80;99.90
17774;DHT22;9011;33.236;-97.118;2022-10-10T10:11:45;17.80;99.90
17774;DHT22;9011;33.236;-97.118;2022-10-10T10:14:22;17.80;99.90
17774;DHT22;9011;33.236;-97.118;2022-10-10T10:16:53;17.80;99.90
17774;DHT22;9011;33.236;-97.118;2022-10-10T10:19:34;17.70;99.90
17774;DHT22;9011;33.236;-97.118;2022-10-10T10:22:04;17.50;99.90
17774;DHT22;9011;33.236;-97.118;2022-10-10T10:24:34;17.40;99.90
17774;DHT22;9011;33.236;-97.118;2022-10-10T10:27:09;17.30;99.90
17774;DHT22;9011;33.236;-97.118;2022-10-10T10:29:45;17.20;99.90
17774;DHT22;9011;33.236;-97.118;2022-10-10T10:32:22;17.30;99.90
17774;DHT22;9011;33.236;-97.118;2022-10-10T10:35:18;17.30;99.90
17774;DHT22;9011;33.236;-97.118;2022-10-10T10:37:57;17.30;99.90
17774;DHT22;9011;33.236;-97.118;2022-10-10T10:40:33;17.20;99.90
17774;DHT22;9011;33.236;-97.118;2022-10-10T10:43:33;17.10;99.90
17774;DHT22;9011;33.236;-97.118;2022-10-10T10:46:11;17.20;99.90
17774;DHT22;9011;33.236;-97.118;2022-10-10T10:48:45;17.10;99.90
17774;DHT22;9011;33.236;-97.118;2022-10-10T10:51:41;17.10;99.90
17774;DHT22;9011;33.236;-97.118;2022-10-10T10:54:21;17.00;99.90
17774;DHT22;9011;33.236;-97.118;2022-10-10T10:56:55;17.00;99.90
17774;DHT22;9011;33.236;-97.118;2022-10-10T10:59:34;17.10;99.90
17774;DHT22;9011;33.236;-97.118;2022-10-10T11:02:21;17.00;99.90
17774;DHT22;9011;33.236;-97.118;2022-10-10T11:05:06;17.00;99.90
17774;DHT22;9011;33.236;-97.118;2022-10-10T11:07:46;17.00;99.90
17774;DHT22;9011;33.236;-97.118;2022-10-10T11:10:23;17.00;99.90
17774;DHT22;9011;33.236;-97.118;2022-10-10T11:13:02;16.90;99.90
17774;DHT22;9011;33.236;-97.118;2022-10-10T11:15:37;16.80;99.90
17774;DHT22;9011;33.236;-97.118;2022-10-10T11:18:10;16.70;99.90
17774;DHT22;9011;33.236;-97.118;2022-10-10T11:20:42;16.60;99.90
17774;DHT22;9011;33.236;-97.118;2022-10-10T11:23:16;16.60;99.90
17774;DHT22;9011;33.236;-97.118;2022-10-10T11:25:50;16.60;99.90
17774;DHT22;9011;33.236;-97.118;2022-10-10T11:28:23;16.40;99.90
17774;DHT22;9011;33.236;-97.118;2022-10-10T11:30:56;16.30;99.90
17774;DHT22;9011;33.236;-97.118;2022-10-10T11:33:29;16.30;99.90
17774;DHT22;9011;33.236;-97.118;2022-10-10T11:36:00;16.20;99.90
17774;DHT22;9011;33.236;-97.118;2022-10-10T11:38:34;16.20;99.90
17774;DHT22;9011;33.236;-97.118;2022-10-10T11:41:11;16.20;99.90
17774;DHT22;9011;33.236;-97.118;2022-10-10T11:43:45;16.20;99.90
17774;DHT22;9011;33.236;-97.118;2022-10-10T11:46:21;16.20;99.90
17774;DHT22;9011;33.236;-97.118;2022-10-10T11:48:56;16.30;99.90
17774;DHT22;9011;33.236;-97.118;2022-10-10T11:51:35;16.30;99.90
17774;DHT22;9011;33.236;-97.118;2022-10-10T11:54:10;16.30;99.90
17774;DHT22;9011;33.236;-97.118;2022-10-10T11:56:43;16.40;99.90
17774;DHT22;9011;33.236;-97.118;2022-10-10T11:59:16;16.40;99.90
17774;DHT22;9011;33.236;-97.118;2022-10-10T12:01:51;16.40;99.90
17774;DHT22;9011;33.236;-97.118;2022-10-10T12:04:21;16.40;99.90
17774;DHT22;9011;33.236;-97.118;2022-10-10T12:06:54;16.40;99.90
17774;DHT22;9011;33.236;-97.118;2022-10-10T12:09:28;16.30;99.90
17774;DHT22;9011;33.236;-97.118;2022-10-10T12:12:00;16.30;99.90
17774;DHT22;9011;33.236;-97.118;2022-10-10T12:14:30;16.20;99.90
17774;DHT22;9011;33.236;-97.118;2022-10-10T12:16:59;16.10;99.90
17774;DHT22;9011;33.236;-97.118;2022-10-10T12:19:28;16.20;99.90
17774;DHT22;9011;33.236;-97.118;2022-10-10T12:21:59;16.20;99.90
17774;DHT22;9011;33.236;-97.118;2022-10-10T12:24:31;16.20;99.90
17774;DHT22;9011;33.236;-97.118;2022-10-10T12:30:21;16.20;99.90
17774;DHT22;9011;33.236;-97.118;2022-10-10T12:32:51;16.20;99.90
17774;DHT22;9011;33.236;-97.118;2022-10-10T12:35:36;16.10;99.90
17774;DHT22;9011;33.236;-97.118;2022-10-10T12:38:19;16.10;99.90
17774;DHT22;9011;33.236;-97.118;2022-10-10T12:41:13;16.10;99.90
17774;DHT22;9011;33.236;-97.118;2022-10-10T12:46:28;16.10;99.90
17774;DHT22;9011;33.236;-97.118;2022-10-10T12:49:04;16.10;99.90
17774;DHT22;9011;33.236;-97.118;2022-10-10T12:51:35;16.10;99.90
17774;DHT22;9011;33.236;-97.118;2022-10-10T12:54:05;16.00;99.90
17774;DHT22;9011;33.236;-97.118;2022-10-10T12:56:38;16.10;99.90
17774;DHT22;9011;33.236;-97.118;2022-10-10T12:59:16;16.20;99.90
17774;DHT22;9011;33.236;-97.118;2022-10-10T13:01:51;16.20;99.90
17774;DHT22;9011;33.236;-97.118;2022-10-10T13:04:21;16.20;99.90
17774;DHT22;9011;33.236;-97.118;2022-10-10T13:06:52;16.20;99.90
17774;DHT22;9011;33.236;-97.118;2022-10-10T13:09:24;16.20;99.90
17774;DHT22;9011;33.236;-97.118;2022-10-10T13:11:56;16.30;99.90
17774;DHT22;9011;33.236;-97.118;2022-10-10T13:14:35;16.40;99.90
17774;DHT22;9011;33.236;-97.118;2022-10-10T13:17:20;16.40;99.90
17774;DHT22;9011;33.236;-97.118;2022-10-10T13:19:49;16.50;99.90
17774;DHT22;9011;33.236;-97.118;2022-10-10T13:22:18;16.60;99.90
17774;DHT22;9011;33.236;-97.118;2022-10-10T13:24:48;16.70;99.90
17774;DHT22;9011;33.236;-97.118;2022-10-10T13:27:20;16.70;99.90
17774;DHT22;9011;33.236;-97.118;2022-10-10T13:29:50;16.80;99.90
17774;DHT22;9011;33.236;-97.118;2022-10-10T13:32:21;16.90;99.90
17774;DHT22;9011;33.236;-97.118;2022-10-10T13:34:52;17.00;99.90
17774;DHT22;9011;33.236;-97.118;2022-10-10T13:37:21;17.10;99.90
17774;DHT22;9011;33.236;-97.118;2022-10-10T13:39:51;17.30;99.90
17774;DHT22;9011;33.236;-97.118;2022-10-10T13:42:30;17.40;99.90
17774;DHT22;9011;33.236;-97.118;2022-10-10T13:45:00;17.60;99.90
17774;DHT22;9011;33.236;-97.118;2022-10-10T13:47:50;17.80;99.90
17774;DHT22;9011;33.236;-97.118;2022-10-10T13:50:23;18.10;99.90
17774;DHT22;9011;33.236;-97.118;2022-10-10T13:53:22;18.60;99.90
17774;DHT22;9011;33.236;-97.118;2022-10-10T13:55:58;18.80;99.90
17774;DHT22;9011;33.236;-97.118;2022-10-10T13:58:31;19.00;99.90
17774;DHT22;9011;33.236;-97.118;2022-10-10T14:01:01;19.30;99.90
17774;DHT22;9011;33.236;-97.118;2022-10-10T14:03:31;19.50;99.90
17774;DHT22;9011;33.236;-97.118;2022-10-10T14:06:00;19.70;99.90
17774;DHT22;9011;33.236;-97.118;2022-10-10T14:08:31;19.90;99.90
17774;DHT22;9011;33.236;-97.118;2022-10-10T14:11:02;20.00;99.90
17774;DHT22;9011;33.236;-97.118;2022-10-10T14:13:35;20.20;99.90
17774;DHT22;9011;33.236;-97.118;2022-10-10T14:16:12;20.40;99.90
17774;DHT22;9011;33.236;-97.118;2022-10-10T14:18:52;20.50;99.90
17774;DHT22;9011;33.236;-97.118;2022-10-10T14:21:20;20.70;99.90
17774;DHT22;9011;33.236;-97.118;2022-10-10T14:23:49;20.80;99.90
17774;DHT22;9011;33.236;-97.118;2022-10-10T14:26:18;20.90;99.90
17774;DHT22;9011;33.236;-97.118;2022-10-10T14:28:49;21.10;99.90
17774;DHT22;9011;33.236;-97.118;2022-10-10T14:31:17;21.30;99.90
17774;DHT22;9011;33.236;-97.118;2022-10-10T14:33:46;21.40;99.90
17774;DHT22;9011;33.236;-97.118;2022-10-10T14:36:14;21.60;99.90
17774;DHT22;9011;33.236;-97.118;2022-10-10T14:38:42;21.80;99.90
17774;DHT22;9011;33.236;-97.118;2022-10-10T14:41:11;22.00;99.90
17774;DHT22;9011;33.236;-97.118;2022-10-10T14:43:39;22.20;99.90
17774;DHT22;9011;33.236;-97.118;2022-10-10T14:46:16;22.30;99.90
17774;DHT22;9011;33.236;-97.118;2022-10-10T14:48:44;22.50;99.90
17774;DHT22;9011;33.236;-97.118;2022-10-10T14:51:13;22.70;99.90
17774;DHT22;9011;33.236;-97.118;2022-10-10T14:53:41;22.90;99.90
17774;DHT22;9011;33.236;-97.118;2022-10-10T14:56:10;23.10;99.90
17774;DHT22;9011;33.236;-97.118;2022-10-10T14:58:39;23.20;99.90
17774;DHT22;9011;33.236;-97.118;2022-10-10T15:01:08;23.40;99.90
17774;DHT22;9011;33.236;-97.118;2022-10-10T15:03:38;23.50;99.90
17774;DHT22;9011;33.236;-97.118;2022-10-10T15:06:09;23.70;99.90
17774;DHT22;9011;33.236;-97.118;2022-10-10T15:08:37;23.80;99.90
17774;DHT22;9011;33.236;-97.118;2022-10-10T15:11:05;24.00;99.90
17774;DHT22;9011;33.236;-97.118;2022-10-10T15:13:34;24.20;99.90
17774;DHT22;9011;33.236;-97.118;2022-10-10T15:16:05;24.30;99.90
17774;DHT22;9011;33.236;-97.118;2022-10-10T15:18:33;24.40;99.90
17774;DHT22;9011;33.236;-97.118;2022-10-10T15:21:09;24.50;99.90
17774;DHT22;9011;33.236;-97.118;2022-10-10T15:23:38;24.70;99.90
17774;DHT22;9011;33.236;-97.118;2022-10-10T15:26:06;24.80;99.90
17774;DHT22;9011;33.236;-97.118;2022-10-10T15:28:34;24.90;99.90
17774;DHT22;9011;33.236;-97.118;2022-10-10T15:31:03;25.10;99.90
17774;DHT22;9011;33.236;-97.118;2022-10-10T15:33:31;25.30;99.90
17774;DHT22;9011;33.236;-97.118;2022-10-10T15:36:02;25.50;99.90
17774;DHT22;9011;33.236;-97.118;2022-10-10T15:38:34;25.50;99.90
17774;DHT22;9011;33.236;-97.118;2022-10-10T15:41:05;25.70;99.90
17774;DHT22;9011;33.236;-97.118;2022-10-10T15:43:42;25.90;99.90
17774;DHT22;9011;33.236;-97.118;2022-10-10T15:46:12;26.10;99.90
17774;DHT22;9011;33.236;-97.118;2022-10-10T15:48:40;26.20;99.90